This is the latest recevied weather packets stored in our database for station/object KQ4HEI. If no packets are shown the sender has not sent any weather packets the latest 10 day(s).
| Time | Temp. | Humidity | Pressure | Rain* | Wind** | Luminosity | Snow |
|---|---|---|---|---|---|---|---|
| 1777569692 | 29.44° C | 56% | 1010.5 hPa | 0 mm | - | - | - |
| 1777569092 | 29.44° C | 56% | 1010.7 hPa | 0 mm | - | - | - |
| 1777568492 | 29.44° C | 56% | 1010.8 hPa | 0 mm | - | - | - |
| 1777567892 | 29.44° C | 55% | 1011.1 hPa | 0 mm | - | - | - |
| 1777567292 | 28.89° C | 56% | 1011.3 hPa | 0 mm | - | - | - |
| 1777566692 | 28.89° C | 57% | 1011.4 hPa | 0 mm | - | - | - |
| 1777566093 | 28.89° C | 56% | 1011.5 hPa | 0 mm | - | - | - |
| 1777565492 | 30.56° C | 53% | 1011.2 hPa | 0 mm | - | - | - |
| 1777564892 | 29.44° C | 55% | 1011.5 hPa | 0 mm | - | - | - |
| 1777564292 | 29.44° C | 55% | 1011.6 hPa | 0 mm | - | - | - |
| 1777563693 | 29.44° C | 55% | 1011.6 hPa | 0 mm | - | - | - |
| 1777563092 | 29.44° C | 55% | 1011.4 hPa | 0 mm | - | - | - |
| 1777562492 | 28.89° C | 56% | 1011.3 hPa | 0 mm | - | - | - |
| 1777561892 | 28.33° C | 57% | 1011.3 hPa | 0 mm | - | - | - |
| 1777561292 | 28.33° C | 59% | 1011.3 hPa | 0 mm | - | - | - |
| 1777560692 | 27.78° C | 61% | 1011.3 hPa | 0 mm | - | - | - |
| 1777560092 | 26.67° C | 66% | 1011.1 hPa | 0 mm | - | - | - |
| 1777559494 | 26.67° C | 66% | 1011.2 hPa | 0 mm | - | - | - |
| 1777558893 | 27.22° C | 67% | 1011.4 hPa | 0 mm | - | - | - |
| 1777558292 | 26.11° C | 73% | 1011.4 hPa | 0 mm | - | - | - |
| 1777557693 | 24.44° C | 79% | 1011.2 hPa | 0 mm | - | - | - |
| 1777557092 | 23.89° C | 81% | 1011.1 hPa | 0 mm | - | - | - |
| 1777556492 | 23.33° C | 84% | 1010.9 hPa | 0 mm | - | - | - |
| 1777555892 | 22.78° C | 86% | 1010.5 hPa | 0 mm | - | - | - |
| 1777555292 | 22.78° C | 88% | 1010.8 hPa | 0 mm | - | - | - |
* Rain latest hour (hover to see other rain measurements)
** Current wind speed in m/s (hover to see current wind gust speed)